sensor_id;sensor_type;location;lat;lon;timestamp;temperature;humidity
18309;DHT22;9280;50.276;18.650;2022-07-04T00:01:06;17.80;99.90
18309;DHT22;9280;50.276;18.650;2022-07-04T00:03:52;17.70;99.90
18309;DHT22;9280;50.276;18.650;2022-07-04T00:06:39;17.70;99.90
18309;DHT22;9280;50.276;18.650;2022-07-04T00:09:24;17.70;99.90
18309;DHT22;9280;50.276;18.650;2022-07-04T00:12:10;17.60;99.90
18309;DHT22;9280;50.276;18.650;2022-07-04T00:14:55;17.50;99.90
18309;DHT22;9280;50.276;18.650;2022-07-04T00:17:41;17.60;99.90
18309;DHT22;9280;50.276;18.650;2022-07-04T00:20:26;17.60;99.90
18309;DHT22;9280;50.276;18.650;2022-07-04T00:23:13;17.50;99.90
18309;DHT22;9280;50.276;18.650;2022-07-04T00:25:59;17.50;99.90
18309;DHT22;9280;50.276;18.650;2022-07-04T00:28:45;17.50;99.90
18309;DHT22;9280;50.276;18.650;2022-07-04T00:31:31;17.40;99.90
18309;DHT22;9280;50.276;18.650;2022-07-04T00:34:18;17.40;99.90
18309;DHT22;9280;50.276;18.650;2022-07-04T00:37:04;17.40;99.90
18309;DHT22;9280;50.276;18.650;2022-07-04T00:39:51;17.40;99.90
18309;DHT22;9280;50.276;18.650;2022-07-04T00:42:39;17.30;99.90
18309;DHT22;9280;50.276;18.650;2022-07-04T00:45:25;17.20;99.90
18309;DHT22;9280;50.276;18.650;2022-07-04T00:48:10;17.20;99.90
18309;DHT22;9280;50.276;18.650;2022-07-04T00:50:58;17.10;99.90
18309;DHT22;9280;50.276;18.650;2022-07-04T00:53:43;17.20;99.90
18309;DHT22;9280;50.276;18.650;2022-07-04T00:56:31;17.20;99.90
18309;DHT22;9280;50.276;18.650;2022-07-04T00:59:17;17.10;99.90
18309;DHT22;9280;50.276;18.650;2022-07-04T01:02:03;17.00;99.90
18309;DHT22;9280;50.276;18.650;2022-07-04T01:04:49;17.00;99.90
18309;DHT22;9280;50.276;18.650;2022-07-04T01:07:35;17.00;99.90
18309;DHT22;9280;50.276;18.650;2022-07-04T01:10:21;17.00;99.90
18309;DHT22;9280;50.276;18.650;2022-07-04T01:13:08;16.90;99.90
18309;DHT22;9280;50.276;18.650;2022-07-04T01:15:53;16.90;99.90
18309;DHT22;9280;50.276;18.650;2022-07-04T01:18:40;16.80;99.90
18309;DHT22;9280;50.276;18.650;2022-07-04T01:21:28;16.80;99.90
18309;DHT22;9280;50.276;18.650;2022-07-04T01:24:13;16.80;99.90
18309;DHT22;9280;50.276;18.650;2022-07-04T01:26:59;16.70;99.90
18309;DHT22;9280;50.276;18.650;2022-07-04T01:29:45;16.80;99.90
18309;DHT22;9280;50.276;18.650;2022-07-04T01:32:31;16.70;99.90
18309;DHT22;9280;50.276;18.650;2022-07-04T01:35:17;16.70;99.90
18309;DHT22;9280;50.276;18.650;2022-07-04T01:38:04;16.70;99.90
18309;DHT22;9280;50.276;18.650;2022-07-04T01:40:50;16.60;99.90
18309;DHT22;9280;50.276;18.650;2022-07-04T01:43:36;16.60;99.90
18309;DHT22;9280;50.276;18.650;2022-07-04T01:46:22;16.60;99.90
18309;DHT22;9280;50.276;18.650;2022-07-04T01:49:08;16.60;99.90
18309;DHT22;9280;50.276;18.650;2022-07-04T01:51:54;16.60;99.90
18309;DHT22;9280;50.276;18.650;2022-07-04T01:54:41;16.60;99.90
18309;DHT22;9280;50.276;18.650;2022-07-04T01:57:27;16.60;99.90
18309;DHT22;9280;50.276;18.650;2022-07-04T02:00:13;16.60;99.90
18309;DHT22;9280;50.276;18.650;2022-07-04T02:03:16;16.60;99.90
18309;DHT22;9280;50.276;18.650;2022-07-04T02:06:03;16.60;99.90
18309;DHT22;9280;50.276;18.650;2022-07-04T02:08:49;16.60;99.90
18309;DHT22;9280;50.276;18.650;2022-07-04T02:11:53;16.60;99.90
18309;DHT22;9280;50.276;18.650;2022-07-04T02:14:57;16.60;99.90
18309;DHT22;9280;50.276;18.650;2022-07-04T02:17:43;16.60;99.90
18309;DHT22;9280;50.276;18.650;2022-07-04T02:20:29;16.60;99.90
18309;DHT22;9280;50.276;18.650;2022-07-04T02:23:15;16.50;99.90
18309;DHT22;9280;50.276;18.650;2022-07-04T02:26:01;16.60;99.90
18309;DHT22;9280;50.276;18.650;2022-07-04T02:28:48;16.50;99.90
18309;DHT22;9280;50.276;18.650;2022-07-04T02:31:33;16.50;99.90
18309;DHT22;9280;50.276;18.650;2022-07-04T02:34:19;16.50;99.90
18309;DHT22;9280;50.276;18.650;2022-07-04T02:37:05;16.40;99.90
18309;DHT22;9280;50.276;18.650;2022-07-04T02:39:51;16.30;99.90
18309;DHT22;9280;50.276;18.650;2022-07-04T02:42:37;16.30;99.90
18309;DHT22;9280;50.276;18.650;2022-07-04T02:45:25;16.30;99.90
18309;DHT22;9280;50.276;18.650;2022-07-04T02:48:11;16.20;99.90
18309;DHT22;9280;50.276;18.650;2022-07-04T02:50:56;16.20;99.90
18309;DHT22;9280;50.276;18.650;2022-07-04T02:53:42;16.30;99.90
18309;DHT22;9280;50.276;18.650;2022-07-04T02:56:28;16.30;99.90
18309;DHT22;9280;50.276;18.650;2022-07-04T02:59:14;16.20;99.90
18309;DHT22;9280;50.276;18.650;2022-07-04T03:02:01;16.30;99.90
18309;DHT22;9280;50.276;18.650;2022-07-04T03:04:47;16.30;99.90
18309;DHT22;9280;50.276;18.650;2022-07-04T03:07:32;16.30;99.90
18309;DHT22;9280;50.276;18.650;2022-07-04T03:10:18;16.30;99.90
18309;DHT22;9280;50.276;18.650;2022-07-04T03:13:04;16.40;99.90
18309;DHT22;9280;50.276;18.650;2022-07-04T03:15:50;16.40;99.90
18309;DHT22;9280;50.276;18.650;2022-07-04T03:18:38;16.50;99.90
18309;DHT22;9280;50.276;18.650;2022-07-04T03:21:24;16.50;99.90
18309;DHT22;9280;50.276;18.650;2022-07-04T03:24:09;16.50;99.90
18309;DHT22;9280;50.276;18.650;2022-07-04T03:26:55;16.60;99.90
18309;DHT22;9280;50.276;18.650;2022-07-04T03:29:41;16.60;99.90
18309;DHT22;9280;50.276;18.650;2022-07-04T03:32:27;16.70;99.90
18309;DHT22;9280;50.276;18.650;2022-07-04T03:35:14;16.80;99.90
18309;DHT22;9280;50.276;18.650;2022-07-04T03:38:00;16.90;99.90
18309;DHT22;9280;50.276;18.650;2022-07-04T03:40:45;17.00;99.90
18309;DHT22;9280;50.276;18.650;2022-07-04T03:43:31;17.10;99.90
18309;DHT22;9280;50.276;18.650;2022-07-04T03:46:17;17.10;99.90
18309;DHT22;9280;50.276;18.650;2022-07-04T03:49:02;17.20;99.90
18309;DHT22;9280;50.276;18.650;2022-07-04T03:51:49;17.30;99.90
18309;DHT22;9280;50.276;18.650;2022-07-04T03:54:35;17.40;99.90
18309;DHT22;9280;50.276;18.650;2022-07-04T03:57:21;17.50;99.90
18309;DHT22;9280;50.276;18.650;2022-07-04T04:00:07;17.60;99.90
18309;DHT22;9280;50.276;18.650;2022-07-04T04:02:57;17.70;99.90
18309;DHT22;9280;50.276;18.650;2022-07-04T04:05:43;17.80;99.90
18309;DHT22;9280;50.276;18.650;2022-07-04T04:08:29;17.90;99.90
18309;DHT22;9280;50.276;18.650;2022-07-04T04:11:15;17.90;99.90
18309;DHT22;9280;50.276;18.650;2022-07-04T04:14:01;18.00;99.90
18309;DHT22;9280;50.276;18.650;2022-07-04T04:16:46;18.10;99.90
18309;DHT22;9280;50.276;18.650;2022-07-04T04:19:32;18.10;99.90
18309;DHT22;9280;50.276;18.650;2022-07-04T04:22:17;18.30;99.90
18309;DHT22;9280;50.276;18.650;2022-07-04T04:25:05;18.30;99.90
18309;DHT22;9280;50.276;18.650;2022-07-04T04:27:51;18.40;99.90
18309;DHT22;9280;50.276;18.650;2022-07-04T04:30:37;18.50;99.90
18309;DHT22;9280;50.276;18.650;2022-07-04T04:33:23;18.50;99.90
18309;DHT22;9280;50.276;18.650;2022-07-04T04:36:09;18.60;99.90
18309;DHT22;9280;50.276;18.650;2022-07-04T04:38:55;18.60;99.90
18309;DHT22;9280;50.276;18.650;2022-07-04T04:41:42;18.80;99.90
18309;DHT22;9280;50.276;18.650;2022-07-04T04:44:28;18.90;99.90
18309;DHT22;9280;50.276;18.650;2022-07-04T04:47:14;19.00;99.90
18309;DHT22;9280;50.276;18.650;2022-07-04T04:50:00;19.00;99.90
18309;DHT22;9280;50.276;18.650;2022-07-04T04:52:46;19.10;99.90
18309;DHT22;9280;50.276;18.650;2022-07-04T04:55:32;19.20;99.90
18309;DHT22;9280;50.276;18.650;2022-07-04T04:58:19;19.20;99.90
18309;DHT22;9280;50.276;18.650;2022-07-04T05:01:04;19.40;99.90
18309;DHT22;9280;50.276;18.650;2022-07-04T05:03:50;19.50;99.90
18309;DHT22;9280;50.276;18.650;2022-07-04T05:06:35;19.60;99.90
18309;DHT22;9280;50.276;18.650;2022-07-04T05:09:21;19.70;99.90
18309;DHT22;9280;50.276;18.650;2022-07-04T05:12:07;19.90;99.90
18309;DHT22;9280;50.276;18.650;2022-07-04T05:14:55;20.00;99.90
18309;DHT22;9280;50.276;18.650;2022-07-04T05:17:40;20.20;99.90
18309;DHT22;9280;50.276;18.650;2022-07-04T05:20:26;20.30;99.90
18309;DHT22;9280;50.276;18.650;2022-07-04T05:23:12;20.40;99.90
18309;DHT22;9280;50.276;18.650;2022-07-04T05:25:58;20.50;99.90
18309;DHT22;9280;50.276;18.650;2022-07-04T05:28:44;20.60;99.90
18309;DHT22;9280;50.276;18.650;2022-07-04T05:31:31;20.60;99.90
18309;DHT22;9280;50.276;18.650;2022-07-04T05:34:17;20.80;99.90
18309;DHT22;9280;50.276;18.650;2022-07-04T05:37:04;20.90;99.90
18309;DHT22;9280;50.276;18.650;2022-07-04T05:39:50;21.10;99.90
18309;DHT22;9280;50.276;18.650;2022-07-04T05:42:35;21.30;99.90
18309;DHT22;9280;50.276;18.650;2022-07-04T05:45:21;21.50;99.90
18309;DHT22;9280;50.276;18.650;2022-07-04T05:48:08;21.70;99.90
18309;DHT22;9280;50.276;18.650;2022-07-04T05:50:55;22.00;99.90
18309;DHT22;9280;50.276;18.650;2022-07-04T05:53:41;22.10;99.90
18309;DHT22;9280;50.276;18.650;2022-07-04T05:56:27;22.10;99.90
18309;DHT22;9280;50.276;18.650;2022-07-04T05:59:14;22.10;99.90
18309;DHT22;9280;50.276;18.650;2022-07-04T06:02:01;22.10;99.90
18309;DHT22;9280;50.276;18.650;2022-07-04T06:04:48;22.20;99.90
18309;DHT22;9280;50.276;18.650;2022-07-04T06:07:35;22.10;99.90
18309;DHT22;9280;50.276;18.650;2022-07-04T06:10:22;22.00;99.90
18309;DHT22;9280;50.276;18.650;2022-07-04T06:13:08;21.90;99.90
18309;DHT22;9280;50.276;18.650;2022-07-04T06:15:54;21.90;99.90
18309;DHT22;9280;50.276;18.650;2022-07-04T06:18:40;22.00;99.90
18309;DHT22;9280;50.276;18.650;2022-07-04T06:21:28;22.10;99.90
18309;DHT22;9280;50.276;18.650;2022-07-04T06:24:14;22.20;99.90
18309;DHT22;9280;50.276;18.650;2022-07-04T06:27:01;22.20;99.90
18309;DHT22;9280;50.276;18.650;2022-07-04T06:29:48;22.10;99.90
18309;DHT22;9280;50.276;18.650;2022-07-04T06:32:42;22.10;99.90
18309;DHT22;9280;50.276;18.650;2022-07-04T06:35:29;22.30;99.90
18309;DHT22;9280;50.276;18.650;2022-07-04T06:38:31;22.80;99.90
18309;DHT22;9280;50.276;18.650;2022-07-04T06:41:17;23.00;99.90
18309;DHT22;9280;50.276;18.650;2022-07-04T06:44:04;23.30;99.90
18309;DHT22;9280;50.276;18.650;2022-07-04T06:46:49;23.60;99.90
18309;DHT22;9280;50.276;18.650;2022-07-04T06:49:36;23.70;99.90
18309;DHT22;9280;50.276;18.650;2022-07-04T06:52:22;23.50;99.90
18309;DHT22;9280;50.276;18.650;2022-07-04T06:55:10;23.70;99.90
18309;DHT22;9280;50.276;18.650;2022-07-04T06:57:56;23.70;99.90
18309;DHT22;9280;50.276;18.650;2022-07-04T07:00:42;23.80;99.90
18309;DHT22;9280;50.276;18.650;2022-07-04T07:03:29;24.00;99.90
18309;DHT22;9280;50.276;18.650;2022-07-04T07:06:15;24.10;99.90
18309;DHT22;9280;50.276;18.650;2022-07-04T07:09:01;24.40;99.90
18309;DHT22;9280;50.276;18.650;2022-07-04T07:11:49;24.70;99.90
18309;DHT22;9280;50.276;18.650;2022-07-04T07:14:35;24.70;99.90
18309;DHT22;9280;50.276;18.650;2022-07-04T07:17:21;24.70;98.50
18309;DHT22;9280;50.276;18.650;2022-07-04T07:20:08;24.80;99.20
18309;DHT22;9280;50.276;18.650;2022-07-04T07:22:54;24.70;97.70
18309;DHT22;9280;50.276;18.650;2022-07-04T07:25:40;24.70;97.40
18309;DHT22;9280;50.276;18.650;2022-07-04T07:28:28;24.60;98.00
18309;DHT22;9280;50.276;18.650;2022-07-04T07:31:13;24.70;97.80
18309;DHT22;9280;50.276;18.650;2022-07-04T07:34:00;24.50;98.10
18309;DHT22;9280;50.276;18.650;2022-07-04T07:36:45;24.50;98.90
18309;DHT22;9280;50.276;18.650;2022-07-04T07:39:32;24.60;98.60
18309;DHT22;9280;50.276;18.650;2022-07-04T07:42:18;24.70;98.00
18309;DHT22;9280;50.276;18.650;2022-07-04T07:45:07;24.90;97.80
18309;DHT22;9280;50.276;18.650;2022-07-04T07:47:53;25.30;97.30
18309;DHT22;9280;50.276;18.650;2022-07-04T07:50:40;25.40;93.60
18309;DHT22;9280;50.276;18.650;2022-07-04T07:53:26;25.20;93.60
18309;DHT22;9280;50.276;18.650;2022-07-04T07:56:12;25.30;90.50
18309;DHT22;9280;50.276;18.650;2022-07-04T07:58:58;25.20;90.80
18309;DHT22;9280;50.276;18.650;2022-07-04T08:01:46;25.50;91.00
18309;DHT22;9280;50.276;18.650;2022-07-04T08:04:32;25.80;86.20
18309;DHT22;9280;50.276;18.650;2022-07-04T08:07:20;26.10;86.90
18309;DHT22;9280;50.276;18.650;2022-07-04T08:10:07;26.50;85.20
18309;DHT22;9280;50.276;18.650;2022-07-04T08:12:57;26.40;81.70
18309;DHT22;9280;50.276;18.650;2022-07-04T08:15:44;27.00;80.50
18309;DHT22;9280;50.276;18.650;2022-07-04T08:18:32;27.20;76.40
18309;DHT22;9280;50.276;18.650;2022-07-04T08:21:21;27.10;75.80
18309;DHT22;9280;50.276;18.650;2022-07-04T08:24:07;27.60;73.70
18309;DHT22;9280;50.276;18.650;2022-07-04T08:26:53;27.70;72.90
18309;DHT22;9280;50.276;18.650;2022-07-04T08:29:39;27.10;71.10
18309;DHT22;9280;50.276;18.650;2022-07-04T08:32:25;27.50;73.60
18309;DHT22;9280;50.276;18.650;2022-07-04T08:35:13;27.90;70.80
18309;DHT22;9280;50.276;18.650;2022-07-04T08:37:59;28.60;65.80
18309;DHT22;9280;50.276;18.650;2022-07-04T08:40:45;28.40;60.80
18309;DHT22;9280;50.276;18.650;2022-07-04T08:43:35;28.90;59.30
18309;DHT22;9280;50.276;18.650;2022-07-04T08:46:25;29.10;58.40
18309;DHT22;9280;50.276;18.650;2022-07-04T08:49:18;29.40;57.00
18309;DHT22;9280;50.276;18.650;2022-07-04T08:52:10;29.30;55.10
18309;DHT22;9280;50.276;18.650;2022-07-04T08:54:58;29.10;53.60
18309;DHT22;9280;50.276;18.650;2022-07-04T08:58:05;29.00;53.40
18309;DHT22;9280;50.276;18.650;2022-07-04T09:01:10;28.90;54.30
18309;DHT22;9280;50.276;18.650;2022-07-04T09:04:00;28.40;54.20
18309;DHT22;9280;50.276;18.650;2022-07-04T09:06:46;28.50;53.20
18309;DHT22;9280;50.276;18.650;2022-07-04T09:09:34;28.50;50.70
18309;DHT22;9280;50.276;18.650;2022-07-04T09:12:20;28.80;52.70
18309;DHT22;9280;50.276;18.650;2022-07-04T09:15:07;29.30;52.80
18309;DHT22;9280;50.276;18.650;2022-07-04T09:17:53;29.40;52.50
18309;DHT22;9280;50.276;18.650;2022-07-04T09:20:39;29.10;47.10
18309;DHT22;9280;50.276;18.650;2022-07-04T09:23:27;29.70;47.30
18309;DHT22;9280;50.276;18.650;2022-07-04T09:26:16;30.70;47.60
18309;DHT22;9280;50.276;18.650;2022-07-04T09:29:02;30.00;47.00
18309;DHT22;9280;50.276;18.650;2022-07-04T09:31:48;29.40;47.60
18309;DHT22;9280;50.276;18.650;2022-07-04T09:34:34;28.80;48.80
18309;DHT22;9280;50.276;18.650;2022-07-04T09:37:20;28.70;50.00
18309;DHT22;9280;50.276;18.650;2022-07-04T09:40:08;28.60;51.10
18309;DHT22;9280;50.276;18.650;2022-07-04T09:42:57;29.00;50.40
18309;DHT22;9280;50.276;18.650;2022-07-04T09:45:53;29.60;49.40
18309;DHT22;9280;50.276;18.650;2022-07-04T09:48:49;29.40;48.70
18309;DHT22;9280;50.276;18.650;2022-07-04T09:51:38;29.70;49.10
18309;DHT22;9280;50.276;18.650;2022-07-04T09:54:25;29.30;49.50
18309;DHT22;9280;50.276;18.650;2022-07-04T09:57:21;29.40;49.10
18309;DHT22;9280;50.276;18.650;2022-07-04T10:00:20;29.80;48.80
18309;DHT22;9280;50.276;18.650;2022-07-04T10:03:18;29.90;47.10
18309;DHT22;9280;50.276;18.650;2022-07-04T10:06:06;29.60;49.00
18309;DHT22;9280;50.276;18.650;2022-07-04T10:08:53;29.10;49.60
18309;DHT22;9280;50.276;18.650;2022-07-04T10:11:40;28.70;49.50
18309;DHT22;9280;50.276;18.650;2022-07-04T10:14:26;29.00;50.50
18309;DHT22;9280;50.276;18.650;2022-07-04T10:17:14;29.00;50.30
18309;DHT22;9280;50.276;18.650;2022-07-04T10:20:01;28.90;49.70
18309;DHT22;9280;50.276;18.650;2022-07-04T10:22:47;29.10;51.50
18309;DHT22;9280;50.276;18.650;2022-07-04T10:25:34;29.10;50.70
18309;DHT22;9280;50.276;18.650;2022-07-04T10:28:21;29.40;50.20
18309;DHT22;9280;50.276;18.650;2022-07-04T10:31:08;29.30;50.00
18309;DHT22;9280;50.276;18.650;2022-07-04T10:33:58;29.30;49.90
18309;DHT22;9280;50.276;18.650;2022-07-04T10:36:51;29.50;48.70
18309;DHT22;9280;50.276;18.650;2022-07-04T10:39:38;29.20;49.40
18309;DHT22;9280;50.276;18.650;2022-07-04T10:42:26;29.00;49.60
18309;DHT22;9280;50.276;18.650;2022-07-04T10:45:31;29.30;50.90
18309;DHT22;9280;50.276;18.650;2022-07-04T10:48:19;29.20;50.10
18309;DHT22;9280;50.276;18.650;2022-07-04T10:51:07;30.30;49.00
18309;DHT22;9280;50.276;18.650;2022-07-04T10:54:01;30.70;46.60
18309;DHT22;9280;50.276;18.650;2022-07-04T10:56:50;30.20;46.10
18309;DHT22;9280;50.276;18.650;2022-07-04T10:59:36;30.60;45.50
18309;DHT22;9280;50.276;18.650;2022-07-04T11:02:27;30.00;44.80
18309;DHT22;9280;50.276;18.650;2022-07-04T11:05:14;30.40;46.30
18309;DHT22;9280;50.276;18.650;2022-07-04T11:08:03;30.20;46.80
18309;DHT22;9280;50.276;18.650;2022-07-04T11:10:51;29.70;47.00
18309;DHT22;9280;50.276;18.650;2022-07-04T11:17:20;30.20;47.30
18309;DHT22;9280;50.276;18.650;2022-07-04T11:20:07;30.70;46.50
18309;DHT22;9280;50.276;18.650;2022-07-04T11:22:55;31.10;47.00
18309;DHT22;9280;50.276;18.650;2022-07-04T11:25:50;31.50;45.40
18309;DHT22;9280;50.276;18.650;2022-07-04T11:28:39;31.30;45.60
18309;DHT22;9280;50.276;18.650;2022-07-04T11:31:36;30.80;45.80
18309;DHT22;9280;50.276;18.650;2022-07-04T11:34:25;31.20;44.80
18309;DHT22;9280;50.276;18.650;2022-07-04T11:37:16;31.30;45.50
18309;DHT22;9280;50.276;18.650;2022-07-04T11:40:04;31.10;45.00
18309;DHT22;9280;50.276;18.650;2022-07-04T11:43:07;31.30;45.50
18309;DHT22;9280;50.276;18.650;2022-07-04T11:46:11;31.10;47.10
18309;DHT22;9280;50.276;18.650;2022-07-04T11:49:07;30.80;46.00
18309;DHT22;9280;50.276;18.650;2022-07-04T11:51:54;31.00;45.80
18309;DHT22;9280;50.276;18.650;2022-07-04T11:54:41;31.50;44.20
18309;DHT22;9280;50.276;18.650;2022-07-04T11:57:36;31.90;43.80
18309;DHT22;9280;50.276;18.650;2022-07-04T12:00:28;31.80;43.60
18309;DHT22;9280;50.276;18.650;2022-07-04T12:03:16;31.50;43.90
18309;DHT22;9280;50.276;18.650;2022-07-04T12:06:03;31.60;43.70
18309;DHT22;9280;50.276;18.650;2022-07-04T12:08:50;31.50;44.00
18309;DHT22;9280;50.276;18.650;2022-07-04T12:11:56;31.90;43.40
18309;DHT22;9280;50.276;18.650;2022-07-04T12:14:57;32.20;41.40
18309;DHT22;9280;50.276;18.650;2022-07-04T12:17:49;32.50;40.50
18309;DHT22;9280;50.276;18.650;2022-07-04T12:20:37;32.70;39.90
18309;DHT22;9280;50.276;18.650;2022-07-04T12:23:24;32.10;41.80
18309;DHT22;9280;50.276;18.650;2022-07-04T12:26:10;31.80;38.40
18309;DHT22;9280;50.276;18.650;2022-07-04T12:28:57;32.20;38.20
18309;DHT22;9280;50.276;18.650;2022-07-04T12:31:44;32.00;37.40
18309;DHT22;9280;50.276;18.650;2022-07-04T12:34:36;31.70;36.80
18309;DHT22;9280;50.276;18.650;2022-07-04T12:37:22;32.30;38.30
18309;DHT22;9280;50.276;18.650;2022-07-04T12:40:08;32.70;36.90
18309;DHT22;9280;50.276;18.650;2022-07-04T12:42:55;33.70;36.20
18309;DHT22;9280;50.276;18.650;2022-07-04T12:45:45;32.90;36.80
18309;DHT22;9280;50.276;18.650;2022-07-04T12:48:32;32.90;36.30
18309;DHT22;9280;50.276;18.650;2022-07-04T12:51:22;33.10;36.90
18309;DHT22;9280;50.276;18.650;2022-07-04T12:54:10;33.50;37.30
18309;DHT22;9280;50.276;18.650;2022-07-04T12:57:04;34.30;36.10
18309;DHT22;9280;50.276;18.650;2022-07-04T12:59:51;34.20;37.70
18309;DHT22;9280;50.276;18.650;2022-07-04T13:02:37;33.20;37.90
18309;DHT22;9280;50.276;18.650;2022-07-04T13:05:24;33.00;37.90
18309;DHT22;9280;50.276;18.650;2022-07-04T13:08:11;32.10;35.80
18309;DHT22;9280;50.276;18.650;2022-07-04T13:10:57;32.20;33.40
18309;DHT22;9280;50.276;18.650;2022-07-04T13:13:57;33.90;31.80
18309;DHT22;9280;50.276;18.650;2022-07-04T13:16:44;37.00;27.20
18309;DHT22;9280;50.276;18.650;2022-07-04T13:19:30;39.20;24.70
18309;DHT22;9280;50.276;18.650;2022-07-04T13:22:16;38.30;23.60
18309;DHT22;9280;50.276;18.650;2022-07-04T13:25:04;36.80;24.70
18309;DHT22;9280;50.276;18.650;2022-07-04T13:27:52;34.80;25.50
18309;DHT22;9280;50.276;18.650;2022-07-04T13:30:38;35.10;26.30
18309;DHT22;9280;50.276;18.650;2022-07-04T13:33:25;35.60;25.20
18309;DHT22;9280;50.276;18.650;2022-07-04T13:36:11;40.00;21.40
18309;DHT22;9280;50.276;18.650;2022-07-04T13:38:57;43.30;18.50
18309;DHT22;9280;50.276;18.650;2022-07-04T13:41:45;44.00;17.60
18309;DHT22;9280;50.276;18.650;2022-07-04T13:44:31;43.10;18.60
18309;DHT22;9280;50.276;18.650;2022-07-04T13:47:17;43.20;16.40
18309;DHT22;9280;50.276;18.650;2022-07-04T13:50:03;44.70;14.90
18309;DHT22;9280;50.276;18.650;2022-07-04T13:52:50;41.30;16.60
18309;DHT22;9280;50.276;18.650;2022-07-04T13:55:36;43.50;16.50
18309;DHT22;9280;50.276;18.650;2022-07-04T13:58:24;41.70;17.40
18309;DHT22;9280;50.276;18.650;2022-07-04T14:01:10;40.10;19.60
18309;DHT22;9280;50.276;18.650;2022-07-04T14:03:56;38.00;21.60
18309;DHT22;9280;50.276;18.650;2022-07-04T14:06:43;36.80;22.50
18309;DHT22;9280;50.276;18.650;2022-07-04T14:09:29;35.50;23.90
18309;DHT22;9280;50.276;18.650;2022-07-04T14:12:15;35.50;25.30
18309;DHT22;9280;50.276;18.650;2022-07-04T14:15:03;35.40;24.20
18309;DHT22;9280;50.276;18.650;2022-07-04T14:17:50;36.20;23.40
18309;DHT22;9280;50.276;18.650;2022-07-04T14:20:36;40.20;20.40
18309;DHT22;9280;50.276;18.650;2022-07-04T14:23:22;43.70;17.10
18309;DHT22;9280;50.276;18.650;2022-07-04T14:26:21;45.40;15.50
18309;DHT22;9280;50.276;18.650;2022-07-04T14:29:09;44.70;15.60
18309;DHT22;9280;50.276;18.650;2022-07-04T14:31:57;45.90;14.70
18309;DHT22;9280;50.276;18.650;2022-07-04T14:34:43;48.50;14.60
18309;DHT22;9280;50.276;18.650;2022-07-04T14:37:29;49.20;13.40
18309;DHT22;9280;50.276;18.650;2022-07-04T14:40:16;49.10;13.00
18309;DHT22;9280;50.276;18.650;2022-07-04T14:43:02;49.10;13.00
18309;DHT22;9280;50.276;18.650;2022-07-04T14:45:48;48.60;13.60
18309;DHT22;9280;50.276;18.650;2022-07-04T14:48:37;50.80;12.20
18309;DHT22;9280;50.276;18.650;2022-07-04T14:51:23;50.90;12.30
18309;DHT22;9280;50.276;18.650;2022-07-04T14:54:10;48.40;12.40
18309;DHT22;9280;50.276;18.650;2022-07-04T14:56:56;46.30;13.40
18309;DHT22;9280;50.276;18.650;2022-07-04T14:59:43;41.40;16.80
18309;DHT22;9280;50.276;18.650;2022-07-04T15:02:29;40.20;18.10
18309;DHT22;9280;50.276;18.650;2022-07-04T15:05:16;39.70;18.10
18309;DHT22;9280;50.276;18.650;2022-07-04T15:08:03;39.20;18.60
18309;DHT22;9280;50.276;18.650;2022-07-04T15:10:49;41.00;17.50
18309;DHT22;9280;50.276;18.650;2022-07-04T15:13:36;44.30;15.30
18309;DHT22;9280;50.276;18.650;2022-07-04T15:16:22;46.20;14.30
18309;DHT22;9280;50.276;18.650;2022-07-04T15:19:08;42.70;16.40
18309;DHT22;9280;50.276;18.650;2022-07-04T15:21:55;38.80;20.00
18309;DHT22;9280;50.276;18.650;2022-07-04T15:24:58;37.00;22.10
18309;DHT22;9280;50.276;18.650;2022-07-04T15:27:44;36.70;22.80
18309;DHT22;9280;50.276;18.650;2022-07-04T15:30:30;38.70;21.50
18309;DHT22;9280;50.276;18.650;2022-07-04T15:33:16;39.60;20.10
18309;DHT22;9280;50.276;18.650;2022-07-04T15:36:04;37.80;21.20
18309;DHT22;9280;50.276;18.650;2022-07-04T15:38:51;35.40;24.10
18309;DHT22;9280;50.276;18.650;2022-07-04T15:41:38;33.90;26.10
18309;DHT22;9280;50.276;18.650;2022-07-04T15:44:24;33.00;27.20
18309;DHT22;9280;50.276;18.650;2022-07-04T15:47:10;32.30;27.20
18309;DHT22;9280;50.276;18.650;2022-07-04T15:49:56;32.10;27.90
18309;DHT22;9280;50.276;18.650;2022-07-04T15:52:43;32.00;28.20
18309;DHT22;9280;50.276;18.650;2022-07-04T15:55:30;32.10;27.80
18309;DHT22;9280;50.276;18.650;2022-07-04T15:58:16;35.90;23.80
18309;DHT22;9280;50.276;18.650;2022-07-04T16:01:02;35.10;24.30
18309;DHT22;9280;50.276;18.650;2022-07-04T16:03:48;35.30;24.30
18309;DHT22;9280;50.276;18.650;2022-07-04T16:06:35;36.70;23.70
18309;DHT22;9280;50.276;18.650;2022-07-04T16:09:20;39.00;21.10
18309;DHT22;9280;50.276;18.650;2022-07-04T16:12:08;36.80;23.10
18309;DHT22;9280;50.276;18.650;2022-07-04T16:14:54;34.60;25.90
18309;DHT22;9280;50.276;18.650;2022-07-04T16:17:40;33.40;27.60
18309;DHT22;9280;50.276;18.650;2022-07-04T16:20:26;32.80;28.90
18309;DHT22;9280;50.276;18.650;2022-07-04T16:23:12;33.20;29.10
18309;DHT22;9280;50.276;18.650;2022-07-04T16:25:58;34.20;27.50
18309;DHT22;9280;50.276;18.650;2022-07-04T16:28:46;33.50;27.80
18309;DHT22;9280;50.276;18.650;2022-07-04T16:31:32;32.40;29.80
18309;DHT22;9280;50.276;18.650;2022-07-04T16:34:18;31.60;30.00
18309;DHT22;9280;50.276;18.650;2022-07-04T16:37:04;31.00;32.10
18309;DHT22;9280;50.276;18.650;2022-07-04T16:39:50;30.80;32.70
18309;DHT22;9280;50.276;18.650;2022-07-04T16:42:37;31.00;33.70
18309;DHT22;9280;50.276;18.650;2022-07-04T16:45:24;31.50;32.90
18309;DHT22;9280;50.276;18.650;2022-07-04T16:48:10;32.80;30.50
18309;DHT22;9280;50.276;18.650;2022-07-04T16:50:57;31.90;30.20
18309;DHT22;9280;50.276;18.650;2022-07-04T16:53:43;31.40;32.30
18309;DHT22;9280;50.276;18.650;2022-07-04T16:56:29;30.70;33.10
18309;DHT22;9280;50.276;18.650;2022-07-04T16:59:15;30.00;34.20
18309;DHT22;9280;50.276;18.650;2022-07-04T17:02:03;29.70;34.80
18309;DHT22;9280;50.276;18.650;2022-07-04T17:04:49;29.70;34.90
18309;DHT22;9280;50.276;18.650;2022-07-04T17:07:35;29.50;34.70
18309;DHT22;9280;50.276;18.650;2022-07-04T17:10:21;29.50;35.10
18309;DHT22;9280;50.276;18.650;2022-07-04T17:13:07;29.40;34.90
18309;DHT22;9280;50.276;18.650;2022-07-04T17:15:53;29.30;36.10
18309;DHT22;9280;50.276;18.650;2022-07-04T17:18:40;29.20;36.40
18309;DHT22;9280;50.276;18.650;2022-07-04T17:21:26;29.20;36.10
18309;DHT22;9280;50.276;18.650;2022-07-04T17:24:12;29.20;35.90
18309;DHT22;9280;50.276;18.650;2022-07-04T17:26:58;29.20;35.80
18309;DHT22;9280;50.276;18.650;2022-07-04T17:29:44;29.00;35.90
18309;DHT22;9280;50.276;18.650;2022-07-04T17:32:30;28.80;35.70
18309;DHT22;9280;50.276;18.650;2022-07-04T17:35:17;28.60;35.70
18309;DHT22;9280;50.276;18.650;2022-07-04T17:38:03;28.40;36.30
18309;DHT22;9280;50.276;18.650;2022-07-04T17:40:49;28.20;36.80